createdAt,value
2022-08-04T00:02:31.664Z,56.75
2022-08-04T00:05:05.777Z,56.88
2022-08-04T00:08:00.510Z,57.11
2022-08-04T00:10:29.053Z,57.17
2022-08-04T00:12:59.949Z,57.16
2022-08-04T00:15:29.294Z,57.22
2022-08-04T00:18:04.580Z,57.23
2022-08-04T00:20:34.387Z,57.30
2022-08-04T00:23:04.684Z,57.46
2022-08-04T00:25:32.960Z,57.50
2022-08-04T00:28:01.658Z,57.66
2022-08-04T00:30:29.587Z,57.71
2022-08-04T00:32:58.180Z,57.70
2022-08-04T00:35:28.109Z,57.71
2022-08-04T00:37:56.296Z,57.89
2022-08-04T00:40:50.742Z,57.86
2022-08-04T00:43:50.912Z,57.93
2022-08-04T00:46:36.224Z,57.94
2022-08-04T00:49:39.778Z,58.00
2022-08-04T00:52:38.645Z,57.93
2022-08-04T00:55:17.875Z,57.97
2022-08-04T00:58:16.024Z,57.94
2022-08-04T01:01:08.549Z,58.09
2022-08-04T01:04:05.758Z,58.20
2022-08-04T01:07:03.387Z,58.15
2022-08-04T01:09:51.865Z,58.28
2022-08-04T01:12:33.632Z,58.33
2022-08-04T01:15:24.848Z,58.47
2022-08-04T01:18:09.088Z,58.50
2022-08-04T01:21:08.025Z,58.59
2022-08-04T01:24:01.083Z,58.65
2022-08-04T01:26:57.968Z,58.63
2022-08-04T01:29:39.575Z,58.69
2022-08-04T01:32:12.283Z,58.81
2022-08-04T01:34:56.272Z,58.87
2022-08-04T01:37:58.027Z,58.98
2022-08-04T01:40:32.351Z,59.00
2022-08-04T01:43:07.992Z,59.09
2022-08-04T01:45:43.660Z,59.14
2022-08-04T01:48:18.668Z,59.31
2022-08-04T01:50:54.556Z,59.36
2022-08-04T01:53:31.171Z,59.36
2022-08-04T01:56:04.936Z,59.42
2022-08-04T01:58:35.382Z,59.43
2022-08-04T02:01:10.608Z,59.46
2022-08-04T02:04:19.840Z,59.52
2022-08-04T02:06:40.425Z,59.54
2022-08-04T02:09:25.674Z,59.59
2022-08-04T02:12:04.551Z,59.64
2022-08-04T02:14:40.450Z,59.91
2022-08-04T02:17:15.724Z,60.15
2022-08-04T02:20:07.143Z,60.54
2022-08-04T02:22:48.926Z,60.46
2022-08-04T02:25:22.602Z,60.47
2022-08-04T02:28:10.547Z,60.51
2022-08-04T02:31:01.233Z,60.43
2022-08-04T02:33:45.561Z,60.18
2022-08-04T02:36:41.716Z,60.04
2022-08-04T02:39:11.550Z,60.03
2022-08-04T02:41:39.748Z,60.01
2022-08-04T02:44:11.101Z,60.07
2022-08-04T02:46:41.409Z,60.10
2022-08-04T02:49:10.699Z,60.18
2022-08-04T02:51:45.689Z,60.24
2022-08-04T02:54:21.612Z,60.32
2022-08-04T02:56:49.805Z,60.51
2022-08-04T02:59:22.721Z,60.68
2022-08-04T03:01:56.911Z,60.82
2022-08-04T03:04:34.211Z,60.93
2022-08-04T03:07:30.891Z,60.95
2022-08-04T03:10:35.682Z,61.11
2022-08-04T03:13:36.825Z,61.20
2022-08-04T03:16:30.005Z,61.33
2022-08-04T03:19:47.371Z,61.44
2022-08-04T03:23:12.498Z,61.61
2022-08-04T03:26:06.679Z,61.66
2022-08-04T03:29:11.977Z,61.75
2022-08-04T03:32:19.696Z,61.89
2022-08-04T03:35:01.449Z,61.92
2022-08-04T03:37:46.094Z,62.00
2022-08-04T03:40:48.010Z,62.09
2022-08-04T03:43:59.105Z,62.12
2022-08-04T03:46:36.249Z,62.11
2022-08-04T03:49:42.779Z,62.13
2022-08-04T03:52:47.279Z,62.11
2022-08-04T03:55:46.967Z,62.16
2022-08-04T03:58:35.188Z,62.27
2022-08-04T04:02:01.221Z,62.35
2022-08-04T04:04:40.106Z,62.61
2022-08-04T04:07:36.352Z,62.72
2022-08-04T04:10:35.786Z,62.78
2022-08-04T04:13:11.413Z,62.92
2022-08-04T04:15:57.017Z,62.81
2022-08-04T04:19:03.525Z,62.75
2022-08-04T04:21:54.365Z,62.42
2022-08-04T04:25:07.390Z,61.98
2022-08-04T04:28:43.517Z,61.70
2022-08-04T04:31:29.273Z,61.37
2022-08-04T04:34:08.774Z,60.97
2022-08-04T04:37:11.401Z,60.70
2022-08-04T04:40:18.220Z,60.59
2022-08-04T04:43:01.252Z,60.40
2022-08-04T04:46:00.101Z,60.28
2022-08-04T04:49:02.198Z,60.22
2022-08-04T04:51:44.270Z,60.17
2022-08-04T04:54:40.155Z,60.14
2022-08-04T04:57:18.126Z,60.22
2022-08-04T04:59:54.065Z,60.19
2022-08-04T05:02:39.149Z,60.21
2022-08-04T05:05:24.136Z,60.28
2022-08-04T05:08:43.869Z,60.37
2022-08-04T05:11:20.223Z,60.37
2022-08-04T05:14:37.360Z,60.19
2022-08-04T05:16:47.806Z,60.32
2022-08-04T05:19:46.703Z,60.35
2022-08-04T05:22:22.669Z,60.42
2022-08-04T05:24:55.167Z,60.49
2022-08-04T05:27:41.510Z,60.39
2022-08-04T05:30:11.654Z,60.52
2022-08-04T05:32:54.026Z,60.60
2022-08-04T05:36:18.056Z,60.45
2022-08-04T05:38:10.191Z,60.23
2022-08-04T05:40:39.681Z,60.15
2022-08-04T05:43:07.291Z,59.92
2022-08-04T05:45:39.355Z,59.82
2022-08-04T05:48:09.385Z,59.57
2022-08-04T05:50:38.646Z,59.44
2022-08-04T05:53:09.377Z,59.32
2022-08-04T05:55:48.771Z,59.27
2022-08-04T05:58:07.360Z,59.27
2022-08-04T06:00:41.239Z,59.22
2022-08-04T06:03:09.264Z,59.12
2022-08-04T06:05:36.801Z,59.02
2022-08-04T06:08:12.604Z,58.82
2022-08-04T06:10:38.652Z,58.80
2022-08-04T06:13:47.834Z,58.33
2022-08-04T06:15:46.281Z,58.22
2022-08-04T06:18:35.285Z,58.02
2022-08-04T06:20:50.258Z,57.77
2022-08-04T06:23:19.547Z,57.68
2022-08-04T06:25:51.626Z,57.54
2022-08-04T06:28:20.706Z,56.87
2022-08-04T06:30:50.417Z,56.65
2022-08-04T06:33:30.017Z,56.49
2022-08-04T06:35:59.456Z,56.29
2022-08-04T06:38:29.392Z,55.12
2022-08-04T06:40:59.285Z,55.17
2022-08-04T06:43:28.376Z,55.00
2022-08-04T06:46:01.872Z,53.61
2022-08-04T06:48:33.527Z,53.57
2022-08-04T06:51:28.109Z,53.58
2022-08-04T06:53:32.920Z,53.28
2022-08-04T06:56:02.238Z,53.18
2022-08-04T06:58:32.804Z,52.61
2022-08-04T07:01:02.226Z,52.30
2022-08-04T07:03:32.311Z,52.33
2022-08-04T07:06:06.487Z,52.29
2022-08-04T07:08:31.295Z,51.89
2022-08-04T07:11:01.644Z,51.55
2022-08-04T07:13:32.055Z,50.81
2022-08-04T07:16:01.111Z,50.58
2022-08-04T07:18:31.559Z,50.15
2022-08-04T07:21:00.239Z,49.21
2022-08-04T07:23:27.937Z,49.39
2022-08-04T07:26:11.095Z,49.03
2022-08-04T07:28:29.870Z,49.06
2022-08-04T07:30:58.800Z,47.07
2022-08-04T07:33:28.143Z,47.28
2022-08-04T07:36:09.224Z,47.03
2022-08-04T07:38:27.458Z,47.12
2022-08-04T07:40:56.808Z,46.44
2022-08-04T07:43:26.598Z,46.23
2022-08-04T07:45:54.573Z,45.17
2022-08-04T07:48:23.945Z,45.60
2022-08-04T07:50:52.269Z,45.53
2022-08-04T07:53:54.741Z,44.89
2022-08-04T07:55:53.195Z,44.70
2022-08-04T07:58:21.126Z,42.70
2022-08-04T08:00:49.117Z,42.30
2022-08-04T08:03:21.918Z,42.28
2022-08-04T08:05:54.887Z,42.09
2022-08-04T08:08:17.269Z,41.95
2022-08-04T08:10:49.140Z,41.62
2022-08-04T08:13:18.044Z,41.44
2022-08-04T08:15:47.330Z,41.60
2022-08-04T08:18:15.688Z,41.13
2022-08-04T08:20:46.640Z,41.18
2022-08-04T08:23:15.124Z,40.61
2022-08-04T08:25:43.009Z,40.33
2022-08-04T08:28:10.701Z,40.63
2022-08-04T08:30:38.503Z,39.19
2022-08-04T08:33:11.499Z,39.51
2022-08-04T08:36:10.116Z,38.74
2022-08-04T08:39:06.963Z,38.91
2022-08-04T08:42:20.358Z,38.17
2022-08-04T08:45:34.669Z,38.19
2022-08-04T08:48:35.987Z,38.41
2022-08-04T08:51:38.117Z,38.65
2022-08-04T08:54:40.691Z,38.87
2022-08-04T08:57:22.751Z,36.13
2022-08-04T09:00:05.281Z,37.04
2022-08-04T09:03:03.981Z,36.48
2022-08-04T09:05:57.935Z,37.21
2022-08-04T09:08:36.625Z,37.13
2022-08-04T09:11:23.541Z,35.42
2022-08-04T09:14:10.880Z,33.27
2022-08-04T09:16:56.053Z,34.31
2022-08-04T09:19:41.812Z,33.96
2022-08-04T09:22:32.674Z,34.31
2022-08-04T09:25:17.620Z,34.33
2022-08-04T09:28:09.535Z,30.30
2022-08-04T09:31:13.343Z,32.56
2022-08-04T09:36:55.129Z,33.06
2022-08-04T09:39:28.320Z,33.56
2022-08-04T09:42:37.167Z,32.16
2022-08-04T09:45:26.584Z,30.52
2022-08-04T09:47:59.872Z,30.34
2022-08-04T09:50:46.902Z,30.39
2022-08-04T09:53:44.195Z,31.15
2022-08-04T09:56:42.838Z,31.85
2022-08-04T09:59:31.789Z,31.92
2022-08-04T10:02:03.949Z,30.81
2022-08-04T10:04:33.657Z,31.44
2022-08-04T10:10:34.186Z,29.63
2022-08-04T10:13:40.932Z,29.80
2022-08-04T10:16:48.279Z,28.75
2022-08-04T10:19:21.075Z,28.70
2022-08-04T10:22:28.077Z,29.93
2022-08-04T10:25:37.415Z,30.61
2022-08-04T10:30:40.993Z,29.97
2022-08-04T10:34:00.081Z,30.07
2022-08-04T10:36:42.014Z,30.07
2022-08-04T10:39:42.865Z,29.31
2022-08-04T10:42:22.299Z,29.63
2022-08-04T10:45:15.151Z,30.29
2022-08-04T10:48:10.697Z,29.52
2022-08-04T10:50:44.610Z,30.54
2022-08-04T10:53:17.809Z,30.31
2022-08-04T10:56:08.880Z,29.27
2022-08-04T10:58:48.532Z,29.17
2022-08-04T11:02:02.063Z,27.47
2022-08-04T11:04:01.860Z,27.68
2022-08-04T11:06:32.226Z,28.94
2022-08-04T11:09:03.080Z,28.25
2022-08-04T11:12:01.714Z,27.98
2022-08-04T11:14:19.341Z,28.65
2022-08-04T11:17:13.904Z,28.83
2022-08-04T11:20:33.630Z,28.75
2022-08-04T11:22:48.201Z,28.64
2022-08-04T11:25:21.850Z,29.22
2022-08-04T11:28:20.429Z,29.00
2022-08-04T11:31:08.707Z,28.79
2022-08-04T11:34:05.814Z,28.64
2022-08-04T11:37:17.401Z,28.98
2022-08-04T11:40:22.510Z,29.19
2022-08-04T11:43:02.663Z,29.71
2022-08-04T11:45:47.556Z,29.39
2022-08-04T11:48:23.595Z,28.78
2022-08-04T11:50:55.087Z,28.45
2022-08-04T11:53:36.401Z,28.47
2022-08-04T11:56:07.632Z,28.17
2022-08-04T11:58:32.468Z,28.39
2022-08-04T12:01:23.401Z,28.57
2022-08-04T12:04:31.707Z,28.80
2022-08-04T12:07:30.389Z,28.93
2022-08-04T12:10:40.910Z,29.01
2022-08-04T12:13:25.981Z,28.78
2022-08-04T12:16:27.851Z,29.00
2022-08-04T12:19:06.278Z,29.39
2022-08-04T12:21:49.429Z,29.26
2022-08-04T12:24:33.081Z,28.49
2022-08-04T12:27:09.239Z,28.55
2022-08-04T12:29:40.690Z,28.23
2022-08-04T12:32:48.223Z,27.56
2022-08-04T12:35:28.115Z,27.26
2022-08-04T12:38:06.162Z,26.62
2022-08-04T12:40:48.547Z,26.45
2022-08-04T12:43:24.391Z,26.05
2022-08-04T12:45:56.790Z,26.70
2022-08-04T12:48:26.027Z,26.75
2022-08-04T12:50:57.532Z,25.63
2022-08-04T12:53:51.291Z,26.80
2022-08-04T12:56:12.081Z,26.41
2022-08-04T12:58:44.171Z,26.22
2022-08-04T13:02:09.385Z,26.18
2022-08-04T13:04:17.569Z,26.34
2022-08-04T13:06:59.818Z,26.29
2022-08-04T13:09:31.868Z,25.78
2022-08-04T13:12:04.904Z,26.79
2022-08-04T13:14:37.256Z,25.58
2022-08-04T13:17:06.138Z,26.73
2022-08-04T13:19:41.421Z,27.18
2022-08-04T13:22:05.778Z,27.09
2022-08-04T13:24:56.650Z,26.16
2022-08-04T13:27:16.493Z,26.22
2022-08-04T13:29:57.810Z,26.33
2022-08-04T13:32:21.826Z,26.28
2022-08-04T13:34:53.752Z,26.25
2022-08-04T13:37:26.328Z,26.98
2022-08-04T13:39:57.310Z,26.66
2022-08-04T13:42:27.205Z,26.94
2022-08-04T13:44:58.935Z,27.09
2022-08-04T13:47:34.387Z,27.41
2022-08-04T13:50:26.088Z,28.03
2022-08-04T13:52:57.957Z,28.25
2022-08-04T13:55:35.834Z,28.71
2022-08-04T13:58:19.897Z,28.71
2022-08-04T14:00:56.166Z,28.85
2022-08-04T14:03:32.131Z,28.99
2022-08-04T14:06:17.417Z,28.78
2022-08-04T14:08:58.894Z,28.79
2022-08-04T14:12:09.635Z,28.00
2022-08-04T14:14:25.179Z,28.81
2022-08-04T14:17:06.783Z,29.58
2022-08-04T14:20:00.314Z,29.92
2022-08-04T14:22:33.924Z,30.06
2022-08-04T14:25:09.307Z,30.13
2022-08-04T14:27:48.900Z,29.88
2022-08-04T14:30:35.819Z,29.55
2022-08-04T14:34:02.570Z,29.92
2022-08-04T14:35:50.365Z,30.17
2022-08-04T14:38:13.757Z,30.00
2022-08-04T14:40:44.639Z,30.41
2022-08-04T14:43:17.079Z,30.53
2022-08-04T14:45:54.623Z,30.71
2022-08-04T14:48:19.428Z,30.55
2022-08-04T14:50:49.354Z,29.76
2022-08-04T14:53:21.366Z,29.74
2022-08-04T14:55:54.427Z,29.52
2022-08-04T14:58:34.499Z,29.23
2022-08-04T15:01:02.154Z,29.01
2022-08-04T15:03:32.252Z,29.16
2022-08-04T15:06:06.885Z,28.88
2022-08-04T15:08:31.941Z,28.64
2022-08-04T15:11:02.609Z,28.88
2022-08-04T15:13:32.670Z,28.84
2022-08-04T15:16:06.396Z,28.82
2022-08-04T15:18:30.993Z,28.79
2022-08-04T15:21:01.670Z,28.74
2022-08-04T15:23:31.784Z,28.64
2022-08-04T15:26:03.325Z,28.98
2022-08-04T15:28:33.770Z,28.20
2022-08-04T15:31:04.310Z,27.76
2022-08-04T15:33:34.107Z,27.79
2022-08-04T15:36:37.617Z,27.62
2022-08-04T15:39:35.342Z,27.07
2022-08-04T15:42:23.375Z,27.63
2022-08-04T15:45:05.020Z,28.06
2022-08-04T15:47:32.669Z,27.85
2022-08-04T15:50:13.302Z,27.85
2022-08-04T15:53:12.590Z,27.76
2022-08-04T15:55:40.796Z,27.87
2022-08-04T15:58:11.824Z,28.06
2022-08-04T16:00:56.056Z,28.05
2022-08-04T16:03:57.965Z,28.26
2022-08-04T16:06:23.366Z,28.11
2022-08-04T16:08:59.790Z,28.15
2022-08-04T16:11:34.466Z,28.49
2022-08-04T16:14:07.950Z,28.59
2022-08-04T16:16:48.966Z,28.58
2022-08-04T16:19:42.859Z,28.84
2022-08-04T16:22:13.493Z,28.50
2022-08-04T16:24:42.732Z,28.40
2022-08-04T16:27:12.323Z,28.98
2022-08-04T16:29:45.103Z,29.48
2022-08-04T16:32:21.559Z,29.53
2022-08-04T16:34:59.321Z,29.73
2022-08-04T16:37:38.897Z,29.93
2022-08-04T16:40:35.146Z,29.69
2022-08-04T16:43:09.680Z,29.93
2022-08-04T16:45:51.053Z,30.19
2022-08-04T16:48:28.036Z,30.45
2022-08-04T16:51:03.153Z,30.69
2022-08-04T16:53:52.781Z,30.99
2022-08-04T16:56:10.720Z,31.21
2022-08-04T16:58:38.511Z,31.12
2022-08-04T17:01:21.880Z,31.40
2022-08-04T17:03:56.198Z,31.71
2022-08-04T17:06:23.192Z,31.90
2022-08-04T17:08:50.968Z,32.28
2022-08-04T17:11:18.619Z,32.59
2022-08-04T17:14:02.890Z,32.93
2022-08-04T17:16:20.495Z,33.46
2022-08-04T17:18:53.939Z,33.69
2022-08-04T17:21:25.938Z,33.76
2022-08-04T17:24:15.412Z,33.71
2022-08-04T17:26:39.956Z,33.92
2022-08-04T17:29:01.784Z,34.04
2022-08-04T17:31:32.555Z,34.24
2022-08-04T17:34:04.385Z,34.32
2022-08-04T17:36:34.099Z,34.95
2022-08-04T17:41:41.892Z,36.92
2022-08-04T17:44:11.497Z,37.62
2022-08-04T17:46:48.249Z,38.05
2022-08-04T17:49:20.528Z,38.37
2022-08-04T17:52:05.844Z,38.76
2022-08-04T17:54:36.735Z,39.14
2022-08-04T17:57:21.845Z,39.99
2022-08-04T17:59:59.850Z,40.38
2022-08-04T18:02:33.235Z,40.98
2022-08-04T18:05:07.752Z,41.44
2022-08-04T18:08:45.921Z,41.45
2022-08-04T18:10:28.890Z,41.52
2022-08-04T18:12:42.033Z,41.70
2022-08-04T18:15:24.731Z,42.01
2022-08-04T18:18:20.565Z,42.22
2022-08-04T18:20:25.737Z,42.77
2022-08-04T18:22:54.092Z,43.29
2022-08-04T18:25:21.649Z,43.62
2022-08-04T18:27:56.603Z,44.14
2022-08-04T18:30:38.331Z,44.53
2022-08-04T18:33:10.615Z,45.10
2022-08-04T18:38:22.252Z,45.48
2022-08-04T18:40:35.542Z,45.58
2022-08-04T18:42:57.139Z,45.76
2022-08-04T18:45:34.316Z,46.02
2022-08-04T18:47:58.937Z,46.73
2022-08-04T18:51:00.573Z,47.30
2022-08-04T18:52:55.268Z,47.83
2022-08-04T18:55:51.590Z,48.37
2022-08-04T18:57:59.209Z,48.87
2022-08-04T19:00:22.468Z,49.46
2022-08-04T19:02:51.326Z,49.70
2022-08-04T19:05:19.418Z,49.71
2022-08-04T19:08:01.375Z,49.78
2022-08-04T19:10:26.413Z,50.25
2022-08-04T19:12:46.488Z,50.44
2022-08-04T19:15:19.510Z,50.43
2022-08-04T19:17:57.198Z,50.71
2022-08-04T19:20:25.109Z,50.78
2022-08-04T19:24:28.298Z,50.98
2022-08-04T19:25:15.243Z,51.11
2022-08-04T19:27:44.725Z,51.20
2022-08-04T19:30:14.398Z,51.44
2022-08-04T19:32:46.089Z,51.56
2022-08-04T19:35:13.499Z,51.38
2022-08-04T19:37:58.258Z,51.59
2022-08-04T19:40:12.550Z,51.70
2022-08-04T19:42:42.053Z,51.93
2022-08-04T19:45:15.747Z,52.02
2022-08-04T19:48:16.060Z,52.36
2022-08-04T19:52:40.368Z,52.79
2022-08-04T19:55:11.144Z,53.07
2022-08-04T19:57:41.562Z,53.31
2022-08-04T20:00:13.602Z,53.49
2022-08-04T20:02:45.696Z,53.76
2022-08-04T20:05:14.786Z,54.00
2022-08-04T20:07:44.363Z,54.15
2022-08-04T20:10:14.611Z,54.35
2022-08-04T20:12:42.378Z,54.47
2022-08-04T20:15:14.962Z,54.62
2022-08-04T20:18:07.671Z,54.67
2022-08-04T20:20:12.813Z,54.80
2022-08-04T20:22:52.635Z,54.89
2022-08-04T20:25:35.613Z,54.92
2022-08-04T20:28:00.235Z,55.18
2022-08-04T20:30:14.014Z,55.16
2022-08-04T20:32:42.110Z,55.50
2022-08-04T20:35:14.155Z,55.47
2022-08-04T20:37:56.994Z,55.59
2022-08-04T20:40:12.254Z,55.72
2022-08-04T20:42:41.356Z,55.60
2022-08-04T20:45:16.104Z,56.10
2022-08-04T20:47:40.575Z,56.24
2022-08-04T20:50:10.078Z,56.21
2022-08-04T20:52:39.002Z,56.46
2022-08-04T20:55:08.904Z,56.50
2022-08-04T20:57:50.106Z,56.72
2022-08-04T21:00:13.431Z,57.07
2022-08-04T21:02:41.418Z,57.08
2022-08-04T21:05:09.841Z,57.06
2022-08-04T21:07:43.918Z,57.34
2022-08-04T21:10:07.820Z,57.29
2022-08-04T21:12:36.001Z,57.42
2022-08-04T21:15:14.211Z,57.66
2022-08-04T21:17:59.018Z,57.56
2022-08-04T21:20:08.150Z,57.70
2022-08-04T21:22:37.898Z,57.76
2022-08-04T21:25:06.871Z,58.06
2022-08-04T21:27:39.381Z,58.04
2022-08-04T21:30:05.372Z,58.26
2022-08-04T21:32:34.645Z,58.20
2022-08-04T21:35:10.134Z,58.22
2022-08-04T21:37:56.642Z,58.27
2022-08-04T21:40:14.219Z,58.39
2022-08-04T21:42:30.928Z,58.38
2022-08-04T21:44:58.662Z,58.30
2022-08-04T21:47:26.460Z,58.35
2022-08-04T21:49:55.987Z,58.35
2022-08-04T21:52:25.058Z,58.48
2022-08-04T21:54:54.494Z,58.49
2022-08-04T21:57:25.315Z,58.52
2022-08-04T21:59:53.028Z,58.61
2022-08-04T22:02:20.869Z,58.38
2022-08-04T22:04:49.107Z,58.45
2022-08-04T22:07:17.345Z,58.53
2022-08-04T22:10:02.408Z,58.50
2022-08-04T22:12:15.359Z,58.40
2022-08-04T22:14:50.375Z,58.31
2022-08-04T22:17:14.408Z,58.53
2022-08-04T22:19:54.923Z,58.69
2022-08-04T22:22:24.547Z,58.88
2022-08-04T22:24:42.961Z,59.10
2022-08-04T22:27:18.889Z,59.07
2022-08-04T22:29:46.569Z,59.29
2022-08-04T22:32:15.323Z,59.17
2022-08-04T22:34:45.672Z,59.53
2022-08-04T22:37:14.313Z,59.08
2022-08-04T22:39:56.343Z,58.84
2022-08-04T22:42:13.601Z,58.63
2022-08-04T22:44:42.738Z,58.44
2022-08-04T22:47:20.086Z,58.44
2022-08-04T22:49:40.894Z,58.46
2022-08-04T22:52:12.702Z,58.57
2022-08-04T22:54:37.950Z,58.59
2022-08-04T22:57:05.925Z,58.71
2022-08-04T22:59:37.842Z,58.77
2022-08-04T23:02:05.602Z,58.66
2022-08-04T23:04:35.120Z,58.70
2022-08-04T23:07:09.200Z,58.77
2022-08-04T23:09:50.046Z,58.75
2022-08-04T23:12:24.418Z,58.80
2022-08-04T23:14:34.889Z,58.77
2022-08-04T23:17:02.925Z,58.85
2022-08-04T23:19:30.565Z,58.87
2022-08-04T23:22:00.870Z,58.93
2022-08-04T23:24:30.170Z,58.96
2022-08-04T23:26:59.139Z,59.03
2022-08-04T23:29:27.509Z,59.11
2022-08-04T23:31:59.645Z,59.24
2022-08-04T23:34:25.301Z,59.37
2022-08-04T23:36:53.102Z,59.53
2022-08-04T23:39:22.667Z,59.65
2022-08-04T23:41:55.123Z,59.72
2022-08-04T23:44:24.950Z,59.79
2022-08-04T23:46:53.369Z,59.85
2022-08-04T23:49:20.975Z,60.04
2022-08-04T23:51:49.884Z,60.16
2022-08-04T23:54:25.687Z,60.28
2022-08-04T23:56:49.004Z,60.32
2022-08-04T23:59:17.754Z,60.37
